Time,TemperatureF,DewpointF,PressureIn,WindDirection,WindDirectionDegrees,WindSpeedMPH,WindSpeedGustMPH,Humidity,HourlyPrecipIn,Conditions,Clouds,dailyrainin,SolarRadiationWatts/m^2,SoftwareType,DateUTC
2013-05-04 00:14:00,63.0,39.0,29.77,West,268,0.0,2.0,42,0.00,,,0.00,0,weatherlink.com 1.10,2013-05-04 07:14:00,
2013-05-04 00:29:00,62.4,38.0,29.76,West,268,1.0,2.0,41,0.00,,,0.00,0,weatherlink.com 1.10,2013-05-04 07:29:00,
2013-05-04 00:44:00,63.1,36.0,29.76,West,268,0.0,2.0,36,0.00,,,0.00,0,weatherlink.com 1.10,2013-05-04 07:44:00,
2013-05-04 00:59:00,63.7,35.0,29.75,West,268,0.0,1.0,35,0.00,,,0.00,0,weatherlink.com 1.10,2013-05-04 07:59:00,
2013-05-04 01:14:00,63.9,36.0,29.75,West,268,0.0,1.0,35,0.00,,,0.00,0,weatherlink.com 1.10,2013-05-04 08:14:00,
2013-05-04 01:29:00,64.0,36.0,29.74,West,268,0.0,1.0,35,0.00,,,0.00,0,weatherlink.com 1.10,2013-05-04 08:29:00,
2013-05-04 01:44:00,63.9,36.0,29.74,West,268,0.0,0.0,35,0.00,,,0.00,0,weatherlink.com 1.10,2013-05-04 08:44:00,
2013-05-04 01:59:00,63.6,36.0,29.73,West,268,0.0,0.0,36,0.00,,,0.00,0,weatherlink.com 1.10,2013-05-04 08:59:00,
2013-05-04 02:14:00,63.2,36.0,29.73,West,268,0.0,0.0,37,0.00,,,0.00,0,weatherlink.com 1.10,2013-05-04 09:14:00,
2013-05-04 02:29:00,62.4,36.0,29.73,West,268,0.0,0.0,37,0.00,,,0.00,0,weatherlink.com 1.10,2013-05-04 09:29:00,
2013-05-04 02:44:00,62.1,37.0,29.72,West,268,0.0,1.0,39,0.00,,,0.00,0,weatherlink.com 1.10,2013-05-04 09:44:00,
2013-05-04 02:59:00,61.6,36.0,29.72,West,268,1.0,2.0,39,0.00,,,0.00,0,weatherlink.com 1.10,2013-05-04 09:59:00,
2013-05-04 03:14:00,61.5,35.0,29.72,West,268,0.0,1.0,37,0.00,,,0.00,0,weatherlink.com 1.10,2013-05-04 10:14:00,
2013-05-04 03:29:00,61.5,35.0,29.72,West,268,0.0,1.0,37,0.00,,,0.00,0,weatherlink.com 1.10,2013-05-04 10:29:00,
2013-05-04 03:44:00,61.5,35.0,29.72,West,268,0.0,2.0,38,0.00,,,0.00,0,weatherlink.com 1.10,2013-05-04 10:44:00,
2013-05-04 03:59:00,61.3,35.0,29.73,West,268,0.0,1.0,37,0.00,,,0.00,0,weatherlink.com 1.10,2013-05-04 10:59:00,
2013-05-04 04:14:00,61.2,36.0,29.72,West,268,0.0,2.0,39,0.00,,,0.00,0,weatherlink.com 1.10,2013-05-04 11:14:00,
2013-05-04 04:29:00,60.8,35.0,29.72,West,268,0.0,1.0,39,0.00,,,0.00,0,weatherlink.com 1.10,2013-05-04 11:29:00,
2013-05-04 04:44:00,60.2,36.0,29.71,West,268,1.0,2.0,41,0.00,,,0.00,0,weatherlink.com 1.10,2013-05-04 11:44:00,
2013-05-04 04:59:00,59.9,35.0,29.71,West,268,2.0,2.0,40,0.00,,,0.00,0,weatherlink.com 1.10,2013-05-04 11:59:00,
2013-05-04 05:29:00,61.4,35.0,29.71,West,268,2.0,2.0,37,0.00,,,0.00,0,weatherlink.com 1.10,2013-05-04 12:29:00,
2013-05-04 05:44:00,62.0,34.0,29.70,West,268,2.0,3.0,35,0.00,,,0.00,0,weatherlink.com 1.10,2013-05-04 12:44:00,
2013-05-04 05:59:00,61.6,36.0,29.70,West,267,3.0,3.0,39,0.00,,,0.00,0,weatherlink.com 1.10,2013-05-04 12:59:00,
2013-05-04 06:14:00,59.6,36.0,29.70,West,267,2.0,2.0,42,0.00,,,0.00,5,weatherlink.com 1.10,2013-05-04 13:14:00,
2013-05-04 06:29:00,58.0,37.0,29.70,West,267,2.0,3.0,46,0.00,,,0.00,18,weatherlink.com 1.10,2013-05-04 13:29:00,
2013-05-04 06:45:00,57.4,38.0,29.70,West,267,2.0,3.0,48,0.00,,,0.00,32,weatherlink.com 1.10,2013-05-04 13:45:00,
2013-05-04 07:00:00,57.9,39.0,29.70,West,267,2.0,3.0,49,0.00,,,0.00,77,weatherlink.com 1.10,2013-05-04 14:00:00,
2013-05-04 07:15:00,59.9,38.0,29.70,West,267,1.0,2.0,45,0.00,,,0.00,151,weatherlink.com 1.10,2013-05-04 14:15:00,
2013-05-04 07:30:00,62.6,38.0,29.70,West,267,0.0,2.0,41,0.00,,,0.00,213,weatherlink.com 1.10,2013-05-04 14:30:00,
2013-05-04 07:45:00,64.9,45.0,29.70,West,267,1.0,2.0,48,0.00,,,0.00,265,weatherlink.com 1.10,2013-05-04 14:45:00,
2013-05-04 08:00:00,66.0,42.0,29.70,West,267,0.0,3.0,42,0.00,,,0.00,322,weatherlink.com 1.10,2013-05-04 15:00:00,
2013-05-04 08:15:00,68.0,45.0,29.70,West,267,1.0,2.0,43,0.00,,,0.00,374,weatherlink.com 1.10,2013-05-04 15:15:00,
2013-05-04 08:30:00,69.2,44.0,29.69,West,261,0.0,2.0,41,0.00,,,0.00,427,weatherlink.com 1.10,2013-05-04 15:30:00,
2013-05-04 08:45:00,71.7,49.0,29.68,West,261,0.0,1.0,44,0.00,,,0.00,485,weatherlink.com 1.10,2013-05-04 15:45:00,
2013-05-04 09:00:00,75.3,46.0,29.68,WSW,251,0.0,1.0,36,0.00,,,0.00,536,weatherlink.com 1.10,2013-05-04 16:00:00,
2013-05-04 09:15:00,78.2,44.0,29.68,WSW,251,0.0,1.0,30,0.00,,,0.00,587,weatherlink.com 1.10,2013-05-04 16:15:00,
2013-05-04 09:30:00,79.9,41.0,29.67,WSW,251,0.0,2.0,25,0.00,,,0.00,636,weatherlink.com 1.10,2013-05-04 16:30:00,
2013-05-04 09:45:00,81.9,44.0,29.67,SW,232,0.0,1.0,26,0.00,,,0.00,684,weatherlink.com 1.10,2013-05-04 16:45:00,
2013-05-04 10:00:00,83.3,41.0,29.67,South,178,1.0,2.0,22,0.00,,,0.00,726,weatherlink.com 1.10,2013-05-04 17:00:00,
2013-05-04 10:16:00,82.4,42.0,29.66,SE,145,1.0,2.0,24,0.00,,,0.00,768,weatherlink.com 1.10,2013-05-04 17:16:00,
2013-05-04 10:32:00,82.7,41.0,29.66,ESE,112,0.0,2.0,23,0.00,,,0.00,807,weatherlink.com 1.10,2013-05-04 17:32:00,
2013-05-04 10:46:00,83.4,41.0,29.66,SSE,147,0.0,2.0,22,0.00,,,0.00,838,weatherlink.com 1.10,2013-05-04 17:46:00,
2013-05-04 11:01:00,84.7,42.0,29.66,ESE,118,0.0,2.0,22,0.00,,,0.00,868,weatherlink.com 1.10,2013-05-04 18:01:00,
2013-05-04 11:16:00,85.7,44.0,29.66,West,273,1.0,4.0,23,0.00,,,0.00,893,weatherlink.com 1.10,2013-05-04 18:16:00,
2013-05-04 11:31:00,84.2,40.0,29.65,West,272,0.0,1.0,21,0.00,,,0.00,914,weatherlink.com 1.10,2013-05-04 18:31:00,
2013-05-04 11:38:00,83.8,40.9,29.65,South,170,1.0,1.0,22,0.00,,,0.00,923,Wunderground v.1.15,2013-05-04 18:38:00,
2013-05-04 11:43:00,84.6,40.4,29.65,SSE,158,1.0,1.0,21,0.00,,,0.00,926,Wunderground v.1.15,2013-05-04 18:43:00,
2013-05-04 11:49:00,84.7,43.9,29.65,West,265,1.0,2.0,24,0.00,,,0.00,933,Wunderground v.1.15,2013-05-04 18:49:00,
2013-05-04 11:55:00,85.0,43.0,29.65,West,263,1.0,3.0,23,0.00,,,0.00,935,Wunderground v.1.15,2013-05-04 18:55:00,
2013-05-04 12:00:00,83.4,41.7,29.64,West,273,2.0,3.0,23,0.00,,,0.00,939,Wunderground v.1.15,2013-05-04 19:00:00,
2013-05-04 12:17:00,84.6,44.0,29.64,West,279,3.0,5.0,24,0.00,,,0.00,951,weatherlink.com 1.10,2013-05-04 19:17:00,
2013-05-04 12:32:00,84.3,44.0,29.63,West,267,1.0,5.0,24,0.00,,,0.00,960,weatherlink.com 1.10,2013-05-04 19:32:00,
2013-05-04 12:47:00,84.3,44.0,29.62,West,271,0.0,5.0,24,0.00,,,0.00,962,weatherlink.com 1.10,2013-05-04 19:47:00,
2013-05-04 13:02:00,84.2,44.0,29.61,West,264,1.0,4.0,24,0.00,,,0.00,962,weatherlink.com 1.10,2013-05-04 20:02:00,
2013-05-04 13:17:00,83.6,43.0,29.60,WSW,257,2.0,3.0,24,0.00,,,0.00,958,weatherlink.com 1.10,2013-05-04 20:17:00,
2013-05-04 13:32:00,84.3,44.0,29.60,West,263,1.0,3.0,24,0.00,,,0.00,889,weatherlink.com 1.10,2013-05-04 20:32:00,
2013-05-04 13:38:00,84.5,42.6,29.60,West,271,1.0,5.0,23,0.00,,,0.00,510,Wunderground v.1.15,2013-05-04 20:38:00,
2013-05-04 13:44:00,83.3,42.7,29.60,West,265,2.0,5.0,24,0.00,,,0.00,385,Wunderground v.1.15,2013-05-04 20:44:00,
2013-05-04 13:50:00,83.1,41.5,29.60,West,281,2.0,3.0,23,0.00,,,0.00,84,Wunderground v.1.15,2013-05-04 20:50:00,
2013-05-04 13:56:00,83.3,42.7,29.60,WNW,283,2.0,3.0,24,0.00,,,0.00,86,Wunderground v.1.15,2013-05-04 20:56:00,
2013-05-04 14:02:00,83.5,40.6,29.60,West,279,2.0,3.0,22,0.00,,,0.00,62,Wunderground v.1.15,2013-05-04 21:02:00,
2013-05-04 14:08:00,83.5,41.8,29.59,West,277,2.0,4.0,23,0.00,,,0.00,63,Wunderground v.1.15,2013-05-04 21:08:00,
2013-05-04 14:13:00,83.4,40.6,29.59,West,271,2.0,3.0,22,0.00,,,0.00,69,Wunderground v.1.15,2013-05-04 21:13:00,
2013-05-04 14:32:00,83.6,42.0,29.59,West,281,1.0,5.0,23,0.00,,,0.00,65,weatherlink.com 1.10,2013-05-04 21:32:00,
2013-05-04 14:47:00,83.3,41.0,29.58,West,264,2.0,3.0,22,0.00,,,0.00,128,weatherlink.com 1.10,2013-05-04 21:47:00,
2013-05-04 15:02:00,83.4,42.0,29.58,West,263,3.0,3.0,23,0.00,,,0.00,104,weatherlink.com 1.10,2013-05-04 22:02:00,
2013-05-04 15:17:00,83.3,42.0,29.57,North,355,0.0,3.0,23,0.00,,,0.00,51,weatherlink.com 1.10,2013-05-04 22:17:00,
2013-05-04 15:32:00,82.8,42.0,29.57,WSW,252,2.0,3.0,24,0.00,,,0.00,62,weatherlink.com 1.10,2013-05-04 22:32:00,
2013-05-04 15:47:00,81.9,46.0,29.56,West,273,0.0,3.0,28,0.00,,,0.00,54,weatherlink.com 1.10,2013-05-04 22:47:00,
2013-05-04 16:02:00,80.8,47.0,29.56,West,269,1.0,3.0,30,0.00,,,0.00,67,weatherlink.com 1.10,2013-05-04 23:02:00,
2013-05-04 16:17:00,79.3,46.0,29.56,West,261,1.0,4.0,31,0.00,,,0.00,40,weatherlink.com 1.10,2013-05-04 23:17:00,
2013-05-04 16:32:00,77.9,49.0,29.55,West,266,0.0,3.0,36,0.00,,,0.00,39,weatherlink.com 1.10,2013-05-04 23:32:00,
2013-05-04 16:47:00,76.5,50.0,29.55,WSW,250,1.0,3.0,39,0.00,,,0.00,39,weatherlink.com 1.10,2013-05-04 23:47:00,
2013-05-04 17:02:00,75.0,50.0,29.54,West,273,1.0,3.0,42,0.00,,,0.00,37,weatherlink.com 1.10,2013-05-05 00:02:00,
2013-05-04 17:17:00,73.6,50.0,29.55,West,276,2.0,4.0,44,0.00,,,0.00,33,weatherlink.com 1.10,2013-05-05 00:17:00,
2013-05-04 17:32:00,71.6,50.0,29.55,West,277,1.0,5.0,46,0.00,,,0.00,62,weatherlink.com 1.10,2013-05-05 00:32:00,
2013-05-04 17:47:00,68.8,49.0,29.55,West,273,2.0,7.0,50,0.00,,,0.00,28,weatherlink.com 1.10,2013-05-05 00:47:00,
2013-05-04 18:02:00,66.6,49.0,29.55,West,274,2.0,7.0,54,0.00,,,0.00,26,weatherlink.com 1.10,2013-05-05 01:02:00,
2013-05-04 18:17:00,64.8,49.0,29.55,West,269,3.0,5.0,56,0.00,,,0.00,26,weatherlink.com 1.10,2013-05-05 01:17:00,
2013-05-04 18:32:00,63.6,48.0,29.54,West,275,4.0,8.0,57,0.00,,,0.00,21,weatherlink.com 1.10,2013-05-05 01:32:00,
2013-05-04 18:47:00,62.3,48.0,29.55,West,268,7.0,8.0,61,0.00,,,0.00,23,weatherlink.com 1.10,2013-05-05 01:47:00,
2013-05-04 19:03:00,60.0,49.0,29.55,West,273,6.0,10.0,67,0.00,,,0.00,18,weatherlink.com 1.10,2013-05-05 02:03:00,
2013-05-04 19:18:00,58.4,49.0,29.55,West,269,4.0,8.0,72,0.00,,,0.00,14,weatherlink.com 1.10,2013-05-05 02:18:00,
2013-05-04 19:33:00,56.8,49.0,29.55,WSW,242,4.0,11.0,75,0.00,,,0.00,11,weatherlink.com 1.10,2013-05-05 02:33:00,
2013-05-04 19:48:00,55.3,49.0,29.55,West,269,5.0,9.0,79,0.00,,,0.00,5,weatherlink.com 1.10,2013-05-05 02:48:00,
2013-05-04 20:02:00,54.9,49.0,29.55,West,276,4.0,7.0,81,0.00,,,0.00,0,weatherlink.com 1.10,2013-05-05 03:02:00,
2013-05-04 20:17:00,54.5,49.0,29.56,West,268,2.0,6.0,82,0.00,,,0.00,0,weatherlink.com 1.10,2013-05-05 03:17:00,
2013-05-04 20:32:00,54.2,50.0,29.56,West,259,4.0,5.0,84,0.00,,,0.00,0,weatherlink.com 1.10,2013-05-05 03:32:00,
2013-05-04 20:47:00,53.8,50.0,29.57,West,272,5.0,7.0,86,0.00,,,0.00,0,weatherlink.com 1.10,2013-05-05 03:47:00,
2013-05-04 21:02:00,53.4,50.0,29.57,West,269,5.0,6.0,87,0.00,,,0.00,0,weatherlink.com 1.10,2013-05-05 04:02:00,
2013-05-04 21:17:00,53.3,50.0,29.57,West,274,3.0,6.0,87,0.00,,,0.00,0,weatherlink.com 1.10,2013-05-05 04:17:00,
2013-05-04 21:32:00,53.3,50.0,29.57,West,269,4.0,7.0,88,0.00,,,0.00,0,weatherlink.com 1.10,2013-05-05 04:32:00,
2013-05-04 21:47:00,53.4,50.0,29.58,West,272,2.0,5.0,88,0.00,,,0.00,0,weatherlink.com 1.10,2013-05-05 04:47:00,
2013-05-04 22:02:00,53.4,50.0,29.58,West,274,2.0,3.0,88,0.00,,,0.00,0,weatherlink.com 1.10,2013-05-05 05:02:00,
2013-05-04 22:17:00,53.3,50.0,29.58,West,274,0.0,1.0,88,0.00,,,0.00,0,weatherlink.com 1.10,2013-05-05 05:17:00,
2013-05-04 22:32:00,53.2,50.0,29.58,West,275,0.0,1.0,88,0.00,,,0.00,0,weatherlink.com 1.10,2013-05-05 05:32:00,
2013-05-04 22:48:00,53.1,49.0,29.58,West,275,0.0,1.0,87,0.00,,,0.00,0,weatherlink.com 1.10,2013-05-05 05:48:00,
2013-05-04 23:03:00,53.2,50.0,29.58,West,275,0.0,1.0,87,0.00,,,0.00,0,weatherlink.com 1.10,2013-05-05 06:03:00,
2013-05-04 23:18:00,53.1,49.0,29.58,West,259,4.0,4.0,86,0.00,,,0.00,0,weatherlink.com 1.10,2013-05-05 06:18:00,
2013-05-04 23:33:00,53.4,49.0,29.58,West,262,0.0,2.0,86,0.00,,,0.00,0,weatherlink.com 1.10,2013-05-05 06:33:00,
2013-05-04 23:48:00,53.5,50.0,29.58,WNW,284,1.0,4.0,86,0.00,,,0.00,0,weatherlink.com 1.10,2013-05-05 06:48:00,